createdAt,value
2022-09-12T00:01:27.934Z,8.05
2022-09-12T00:03:56.946Z,8.23
2022-09-12T00:06:29.807Z,8.63
2022-09-12T00:08:59.335Z,8.25
2022-09-12T00:11:27.066Z,7.28
2022-09-12T00:14:01.691Z,7.72
2022-09-12T00:16:30.899Z,9.25
2022-09-12T00:18:57.892Z,6.70
2022-09-12T00:21:24.870Z,7.97
2022-09-12T00:23:52.282Z,7.50
2022-09-12T00:26:20.240Z,6.68
2022-09-12T00:28:48.399Z,8.43
2022-09-12T00:31:18.069Z,8.63
2022-09-12T00:33:45.383Z,6.93
2022-09-12T00:36:15.309Z,7.32
2022-09-12T00:38:43.288Z,7.07
2022-09-12T00:41:20.380Z,8.07
2022-09-12T00:43:50.541Z,8.90
2022-09-12T00:46:20.384Z,6.90
2022-09-12T00:48:54.557Z,8.98
2022-09-12T00:51:22.015Z,7.68
2022-09-12T00:53:51.287Z,7.97
2022-09-12T00:56:20.142Z,7.80
2022-09-12T00:59:02.210Z,6.82
2022-09-12T01:01:32.396Z,6.50
2022-09-12T01:04:00.298Z,8.50
2022-09-12T01:06:36.287Z,7.35
2022-09-12T01:09:04.427Z,8.27
2022-09-12T01:11:34.616Z,6.55
2022-09-12T01:14:01.609Z,6.65
2022-09-12T01:16:28.693Z,6.55
2022-09-12T01:19:20.383Z,7.05
2022-09-12T01:21:59.013Z,7.23
2022-09-12T01:24:37.934Z,6.28
2022-09-12T01:27:13.172Z,7.13
2022-09-12T01:30:05.392Z,8.43
2022-09-12T01:32:43.867Z,6.53
2022-09-12T01:35:16.715Z,7.23
2022-09-12T01:37:54.747Z,7.50
2022-09-12T01:40:30.042Z,8.02
2022-09-12T01:43:02.435Z,6.18
2022-09-12T01:46:02.696Z,7.40
2022-09-12T01:48:38.787Z,8.40
2022-09-12T01:51:17.114Z,7.10
2022-09-12T01:53:53.289Z,7.15
2022-09-12T01:56:25.084Z,7.55
2022-09-12T01:59:01.439Z,6.68
2022-09-12T02:01:32.285Z,7.73
2022-09-12T02:04:06.951Z,6.70
2022-09-12T02:07:09.683Z,8.38
2022-09-12T02:10:05.524Z,7.03
2022-09-12T02:12:44.756Z,6.75
2022-09-12T02:15:14.046Z,7.80
2022-09-12T02:17:44.440Z,7.20
2022-09-12T02:20:43.917Z,7.43
2022-09-12T02:23:12.359Z,7.30
2022-09-12T02:25:43.099Z,8.07
2022-09-12T02:28:18.648Z,8.83
2022-09-12T02:31:12.972Z,6.50
2022-09-12T02:33:45.601Z,6.97
2022-09-12T02:36:36.580Z,7.78
2022-09-12T02:39:03.663Z,8.32
2022-09-12T02:41:30.596Z,8.40
2022-09-12T02:43:57.758Z,6.95
2022-09-12T02:46:34.535Z,8.60
2022-09-12T02:49:01.540Z,6.43
2022-09-12T02:51:28.454Z,6.82
2022-09-12T02:53:55.902Z,6.70
2022-09-12T02:56:31.172Z,7.07
2022-09-12T02:59:08.426Z,6.88
2022-09-12T03:02:00.255Z,7.00
2022-09-12T03:05:02.512Z,7.63
2022-09-12T03:07:37.804Z,7.53
2022-09-12T03:10:07.538Z,7.68
2022-09-12T03:13:03.858Z,7.10
2022-09-12T03:16:12.132Z,6.88
2022-09-12T03:18:55.336Z,7.75
2022-09-12T03:21:58.415Z,7.57
2022-09-12T03:24:38.694Z,7.50
2022-09-12T03:27:14.116Z,6.43
2022-09-12T03:29:42.997Z,6.47
2022-09-12T03:32:09.893Z,8.20
2022-09-12T03:34:36.786Z,9.00
2022-09-12T03:37:04.094Z,10.38
2022-09-12T03:39:31.308Z,7.95
2022-09-12T03:41:58.160Z,10.27
2022-09-12T03:44:25.541Z,11.40
2022-09-12T03:46:52.520Z,10.70
2022-09-12T03:49:19.343Z,10.00
2022-09-12T03:51:46.164Z,10.20
2022-09-12T03:54:13.092Z,11.52
2022-09-12T03:56:39.860Z,9.55
2022-09-12T03:59:07.477Z,10.93
2022-09-12T04:01:35.125Z,11.45
2022-09-12T04:04:02.355Z,12.32
2022-09-12T04:06:29.286Z,13.32
2022-09-12T04:08:56.411Z,12.27
2022-09-12T04:11:24.011Z,11.10
2022-09-12T04:13:51.121Z,10.23
2022-09-12T04:16:19.332Z,11.40
2022-09-12T04:18:47.036Z,12.48
2022-09-12T04:21:17.213Z,11.55
2022-09-12T04:23:44.621Z,12.87
2022-09-12T04:26:12.120Z,13.45
2022-09-12T04:28:39.308Z,13.82
2022-09-12T04:31:09.496Z,9.95
2022-09-12T04:33:36.957Z,12.93
2022-09-12T04:36:12.194Z,15.60
2022-09-12T04:38:39.010Z,12.27
2022-09-12T04:41:22.083Z,11.82
2022-09-12T04:43:56.719Z,13.77
2022-09-12T04:46:23.701Z,12.15
2022-09-12T04:48:55.909Z,10.27
2022-09-12T04:51:32.570Z,9.48
2022-09-12T04:54:02.757Z,13.50
2022-09-12T04:56:30.540Z,9.75
2022-09-12T04:58:59.542Z,10.93
2022-09-12T05:01:28.098Z,11.63
2022-09-12T05:03:55.753Z,9.80
2022-09-12T05:06:26.320Z,10.63
2022-09-12T05:08:53.766Z,10.60
2022-09-12T05:11:26.579Z,12.27
2022-09-12T05:13:55.310Z,11.43
2022-09-12T05:16:23.524Z,9.50
2022-09-12T05:18:50.593Z,9.60
2022-09-12T05:21:20.277Z,9.75
2022-09-12T05:23:47.568Z,13.07
2022-09-12T05:26:16.319Z,12.67
2022-09-12T05:28:44.120Z,14.88
2022-09-12T05:31:12.338Z,10.20
2022-09-12T05:33:42.048Z,10.32
2022-09-12T05:36:12.894Z,11.88
2022-09-12T05:38:40.357Z,11.97
2022-09-12T05:41:17.582Z,13.52
2022-09-12T05:43:46.957Z,11.57
2022-09-12T05:46:19.250Z,12.82
2022-09-12T05:48:50.475Z,9.82
2022-09-12T05:51:22.539Z,13.50
2022-09-12T05:53:53.609Z,14.73
2022-09-12T05:56:23.830Z,15.25
2022-09-12T05:58:55.185Z,13.15
2022-09-12T06:01:23.221Z,12.02
2022-09-12T06:03:52.650Z,12.73
2022-09-12T06:06:21.966Z,13.65
2022-09-12T06:08:53.766Z,9.60
2022-09-12T06:11:26.685Z,15.77
2022-09-12T06:13:53.579Z,14.75
2022-09-12T06:16:22.880Z,16.00
2022-09-12T06:18:52.429Z,11.70
2022-09-12T06:21:20.539Z,12.13
2022-09-12T06:23:47.784Z,11.05
2022-09-12T06:26:16.724Z,11.90
2022-09-12T06:28:45.202Z,12.53
2022-09-12T06:31:15.718Z,14.05
2022-09-12T06:33:46.661Z,13.50
2022-09-12T06:36:16.982Z,16.67
2022-09-12T06:38:44.599Z,12.30
2022-09-12T06:41:13.424Z,11.50
2022-09-12T06:43:42.348Z,11.70
2022-09-12T06:46:10.943Z,13.57
2022-09-12T06:48:41.782Z,13.70
2022-09-12T06:51:18.358Z,12.20
2022-09-12T06:53:47.146Z,12.53
2022-09-12T06:56:17.445Z,10.77
2022-09-12T06:58:44.618Z,10.63
2022-09-12T07:01:16.119Z,12.70
2022-09-12T07:03:44.379Z,8.13
2022-09-12T07:06:13.759Z,10.67
2022-09-12T07:08:40.707Z,10.18
2022-09-12T07:11:23.188Z,10.65
2022-09-12T07:13:53.255Z,9.85
2022-09-12T07:16:20.314Z,12.50
2022-09-12T07:18:59.345Z,12.30
2022-09-12T07:21:26.486Z,10.98
2022-09-12T07:23:53.464Z,8.18
2022-09-12T07:26:20.334Z,11.20
2022-09-12T07:28:51.653Z,9.65
2022-09-12T07:31:19.723Z,11.13
2022-09-12T07:33:49.077Z,11.35
2022-09-12T07:36:21.431Z,8.52
2022-09-12T07:38:49.016Z,10.20
2022-09-12T07:41:22.416Z,8.52
2022-09-12T07:43:54.161Z,13.53
2022-09-12T07:46:21.424Z,6.80
2022-09-12T07:48:55.935Z,8.02
2022-09-12T07:51:25.795Z,8.07
2022-09-12T07:53:52.669Z,9.02
2022-09-12T07:56:20.990Z,9.83
2022-09-12T07:58:48.221Z,10.10
2022-09-12T08:01:22.395Z,9.32
2022-09-12T08:03:53.866Z,10.02
2022-09-12T08:06:22.926Z,7.35
2022-09-12T08:08:51.281Z,10.63
2022-09-12T08:11:20.301Z,10.23
2022-09-12T08:13:50.568Z,8.27
2022-09-12T08:16:21.515Z,10.80
2022-09-12T08:18:49.767Z,10.63
2022-09-12T08:21:22.004Z,12.50
2022-09-12T08:23:53.641Z,11.07
2022-09-12T08:26:20.900Z,11.20
2022-09-12T08:28:48.464Z,11.70
2022-09-12T08:31:18.337Z,10.38
2022-09-12T08:33:45.923Z,7.50
2022-09-12T08:36:24.548Z,8.52
2022-09-12T08:38:59.095Z,7.60
2022-09-12T08:41:33.904Z,10.63
2022-09-12T08:44:20.262Z,7.63
2022-09-12T08:47:01.282Z,8.37
2022-09-12T08:49:39.306Z,8.73
2022-09-12T08:52:16.855Z,9.73
2022-09-12T08:54:44.965Z,8.32
2022-09-12T08:57:14.878Z,9.00
2022-09-12T08:59:43.975Z,7.33
2022-09-12T09:02:29.627Z,7.32
2022-09-12T09:05:22.870Z,10.93
2022-09-12T09:08:32.070Z,11.38
2022-09-12T09:11:37.171Z,9.25
2022-09-12T09:14:12.972Z,7.87
2022-09-12T09:16:42.856Z,9.63
2022-09-12T09:19:17.768Z,9.23
2022-09-12T09:21:53.011Z,7.10
2022-09-12T09:24:25.332Z,7.90
2022-09-12T09:27:36.905Z,14.07
2022-09-12T09:30:03.314Z,9.45
2022-09-12T09:32:41.039Z,8.82
2022-09-12T09:35:22.443Z,8.23
2022-09-12T09:38:13.987Z,12.27
2022-09-12T09:41:10.116Z,10.53
2022-09-12T09:43:38.401Z,14.60
2022-09-12T09:46:05.882Z,8.52
2022-09-12T09:48:40.753Z,9.80
2022-09-12T09:51:09.598Z,8.02
2022-09-12T09:53:53.266Z,9.30
2022-09-12T09:56:33.659Z,7.35
2022-09-12T09:59:21.057Z,7.97
2022-09-12T10:01:52.337Z,7.22
2022-09-12T10:04:30.811Z,9.10
2022-09-12T10:07:00.171Z,9.77
2022-09-12T10:09:29.924Z,9.52
2022-09-12T10:11:57.487Z,8.57
2022-09-12T10:14:39.528Z,10.35
2022-09-12T10:17:40.859Z,10.18
2022-09-12T10:20:35.417Z,8.70
2022-09-12T10:23:26.139Z,8.82
2022-09-12T10:25:56.329Z,7.90
2022-09-12T10:28:36.645Z,8.02
2022-09-12T10:31:04.165Z,10.13
2022-09-12T10:33:46.438Z,6.53
2022-09-12T10:36:14.162Z,8.15
2022-09-12T10:38:49.580Z,7.68
2022-09-12T10:41:16.528Z,8.15
2022-09-12T10:43:43.860Z,7.38
2022-09-12T10:46:16.801Z,12.13
2022-09-12T10:48:45.559Z,9.90
2022-09-12T10:51:26.570Z,9.27
2022-09-12T10:53:59.351Z,7.53
2022-09-12T10:56:36.155Z,8.32
2022-09-12T10:59:26.223Z,8.40
2022-09-12T11:02:30.982Z,8.65
2022-09-12T11:05:22.597Z,7.57
2022-09-12T11:08:04.957Z,10.45
2022-09-12T11:10:41.465Z,9.30
2022-09-12T11:13:49.318Z,9.10
2022-09-12T11:16:34.949Z,9.57
2022-09-12T11:19:28.032Z,9.18
2022-09-12T11:22:33.122Z,8.30
2022-09-12T11:25:28.243Z,10.70
2022-09-12T11:27:57.680Z,12.27
2022-09-12T11:30:24.444Z,7.70
2022-09-12T11:32:57.631Z,7.88
2022-09-12T11:35:26.047Z,7.07
2022-09-12T11:38:14.657Z,7.30
2022-09-12T11:40:56.720Z,9.33
2022-09-12T11:43:51.736Z,7.10
2022-09-12T11:46:21.321Z,8.27
2022-09-12T11:49:23.228Z,7.00
2022-09-12T11:51:58.873Z,7.90
2022-09-12T11:54:44.169Z,8.07
2022-09-12T11:57:20.009Z,8.15
2022-09-12T11:59:55.885Z,7.07
2022-09-12T12:02:27.552Z,6.47
2022-09-12T12:05:22.461Z,7.72
2022-09-12T12:07:57.579Z,7.20
2022-09-12T12:10:24.534Z,6.50
2022-09-12T12:12:53.146Z,7.03
2022-09-12T12:15:21.567Z,8.38
2022-09-12T12:18:16.050Z,7.72
2022-09-12T12:20:43.168Z,9.23
2022-09-12T12:23:31.496Z,8.10
2022-09-12T12:26:00.859Z,5.78
2022-09-12T12:28:42.923Z,7.70
2022-09-12T12:31:10.986Z,7.38
2022-09-12T12:33:37.796Z,7.47
2022-09-12T12:36:31.864Z,7.15
2022-09-12T12:38:59.048Z,9.00
2022-09-12T12:41:25.823Z,6.47
2022-09-12T12:43:54.786Z,8.30
2022-09-12T12:46:24.197Z,7.80
2022-09-12T12:49:03.264Z,8.60
2022-09-12T12:51:36.102Z,8.85
2022-09-12T12:54:09.851Z,8.13
2022-09-12T12:56:42.665Z,7.70
2022-09-12T12:59:20.614Z,7.00
2022-09-12T13:01:56.001Z,7.50
2022-09-12T13:04:26.509Z,10.38
2022-09-12T13:07:07.947Z,7.93
2022-09-12T13:09:43.965Z,8.80
2022-09-12T13:12:19.368Z,15.33
2022-09-12T13:14:57.331Z,9.48
2022-09-12T13:17:35.094Z,10.68
2022-09-12T13:20:29.596Z,12.65
2022-09-12T13:22:57.633Z,7.82
2022-09-12T13:25:35.127Z,9.33
2022-09-12T13:28:10.803Z,9.25
2022-09-12T13:30:41.154Z,9.02
2022-09-12T13:33:37.442Z,9.45
2022-09-12T13:36:41.749Z,10.25
2022-09-12T13:39:21.785Z,8.90
2022-09-12T13:42:27.244Z,9.88
2022-09-12T13:45:10.314Z,9.75
2022-09-12T13:47:41.701Z,9.70
2022-09-12T13:50:14.581Z,9.50
2022-09-12T13:52:58.158Z,7.97
2022-09-12T13:55:39.069Z,11.32
2022-09-12T13:58:20.836Z,9.88
2022-09-12T14:01:00.012Z,10.77
2022-09-12T14:03:29.463Z,8.85
2022-09-12T14:05:57.184Z,8.50
2022-09-12T14:08:24.745Z,7.95
2022-09-12T14:10:52.191Z,9.52
2022-09-12T14:13:22.205Z,8.02
2022-09-12T14:15:51.201Z,8.57
2022-09-12T14:18:30.756Z,8.47
2022-09-12T14:21:07.766Z,6.30
2022-09-12T14:23:34.904Z,6.30
2022-09-12T14:26:04.650Z,7.15
2022-09-12T14:28:33.302Z,7.78
2022-09-12T14:31:13.135Z,7.80
2022-09-12T14:33:56.027Z,7.55
2022-09-12T14:36:31.502Z,6.65
2022-09-12T14:39:20.985Z,5.50
2022-09-12T14:41:49.491Z,6.40
2022-09-12T14:44:36.420Z,6.50
2022-09-12T14:47:39.422Z,6.03
2022-09-12T14:50:17.597Z,6.50
2022-09-12T14:52:44.941Z,8.00
2022-09-12T14:55:29.702Z,6.95
2022-09-12T14:58:14.572Z,5.60
2022-09-12T15:01:02.059Z,5.80
2022-09-12T15:03:46.107Z,5.28
2022-09-12T15:06:33.704Z,4.82
2022-09-12T15:09:13.703Z,6.05
2022-09-12T15:11:40.633Z,5.80
2022-09-12T15:14:13.960Z,5.57
2022-09-12T15:16:42.212Z,5.32
2022-09-12T15:19:09.300Z,4.70
2022-09-12T15:21:36.094Z,5.20
2022-09-12T15:24:03.439Z,5.07
2022-09-12T15:26:30.369Z,5.07
2022-09-12T15:28:57.294Z,4.50
2022-09-12T15:31:30.331Z,6.03
2022-09-12T15:33:59.588Z,4.78
2022-09-12T15:36:27.507Z,4.80
2022-09-12T15:38:54.731Z,4.32
2022-09-12T15:41:41.699Z,4.55
2022-09-12T15:44:12.611Z,3.75
2022-09-12T15:46:39.595Z,4.45
2022-09-12T15:49:06.689Z,4.20
2022-09-12T15:51:34.229Z,4.40
2022-09-12T15:54:04.745Z,4.78
2022-09-12T15:56:31.579Z,3.83
2022-09-12T15:58:59.902Z,3.85
2022-09-12T16:01:28.714Z,3.97
2022-09-12T16:03:55.637Z,3.97
2022-09-12T16:06:22.911Z,5.28
2022-09-12T16:08:49.757Z,3.17
2022-09-12T16:11:27.348Z,4.03
2022-09-12T16:13:55.715Z,3.60
2022-09-12T16:16:23.110Z,3.03
2022-09-12T16:18:50.172Z,3.30
2022-09-12T16:21:17.231Z,3.17
2022-09-12T16:23:45.130Z,3.20
2022-09-12T16:26:11.993Z,2.97
2022-09-12T16:28:38.982Z,3.30
2022-09-12T16:31:07.926Z,3.10
2022-09-12T16:33:35.490Z,3.30
2022-09-12T16:36:05.957Z,3.97
2022-09-12T16:38:33.272Z,3.00
2022-09-12T16:41:04.894Z,2.83
2022-09-12T16:43:33.285Z,3.40
2022-09-12T16:46:09.226Z,3.25
2022-09-12T16:48:36.268Z,2.80
2022-09-12T16:51:05.730Z,2.80
2022-09-12T16:53:34.352Z,3.42
2022-09-12T16:56:04.391Z,2.88
2022-09-12T16:58:41.947Z,4.20
2022-09-12T17:01:11.865Z,3.60
2022-09-12T17:03:39.957Z,2.70
2022-09-12T17:06:12.788Z,2.60
2022-09-12T17:08:42.223Z,2.60
2022-09-12T17:11:11.378Z,2.80
2022-09-12T17:14:00.529Z,3.92
2022-09-12T17:16:26.956Z,2.80
2022-09-12T17:18:54.663Z,2.58
2022-09-12T17:21:21.908Z,2.53
2022-09-12T17:23:49.294Z,2.88
2022-09-12T17:26:16.287Z,3.55
2022-09-12T17:28:43.339Z,2.63
2022-09-12T17:31:12.613Z,3.03
2022-09-12T17:33:39.821Z,2.80
2022-09-12T17:36:18.322Z,2.67
2022-09-12T17:38:46.434Z,2.40
2022-09-12T17:41:18.899Z,2.30
2022-09-12T17:43:47.876Z,2.45
2022-09-12T17:46:14.815Z,2.88
2022-09-12T17:48:42.126Z,3.05
2022-09-12T17:51:10.939Z,2.72
2022-09-12T17:53:38.498Z,3.17
2022-09-12T17:56:06.861Z,2.80
2022-09-12T17:58:35.066Z,2.60
2022-09-12T18:01:06.427Z,2.60
2022-09-12T18:03:33.254Z,3.17
2022-09-12T18:06:00.191Z,2.50
2022-09-12T18:08:27.013Z,2.45
2022-09-12T18:10:53.798Z,2.63
2022-09-12T18:13:20.648Z,2.50
2022-09-12T18:15:47.650Z,2.67
2022-09-12T18:18:14.653Z,2.60
2022-09-12T18:20:50.438Z,2.78
2022-09-12T18:23:17.179Z,2.20
2022-09-12T18:25:43.973Z,2.58
2022-09-12T18:28:10.785Z,2.75
2022-09-12T18:30:37.704Z,2.77
2022-09-12T18:33:04.579Z,3.33
2022-09-12T18:35:31.419Z,2.92
2022-09-12T18:37:58.281Z,2.35
2022-09-12T18:40:25.114Z,2.40
2022-09-12T18:42:52.248Z,2.70
2022-09-12T18:45:19.220Z,2.80
2022-09-12T18:47:46.014Z,2.83
2022-09-12T18:50:12.972Z,2.65
2022-09-12T18:52:39.768Z,3.45
2022-09-12T18:55:06.814Z,2.80
2022-09-12T18:57:33.802Z,2.60
2022-09-12T19:00:07.261Z,2.90
2022-09-12T19:02:36.435Z,2.80
2022-09-12T19:05:03.939Z,2.90
2022-09-12T19:07:30.770Z,3.17
2022-09-12T19:09:59.465Z,3.05
2022-09-12T19:12:26.199Z,2.60
2022-09-12T19:14:53.018Z,2.70
2022-09-12T19:17:20.168Z,2.60
2022-09-12T19:19:46.982Z,2.93
2022-09-12T19:22:13.835Z,2.70
2022-09-12T19:24:40.721Z,2.72
2022-09-12T19:27:07.513Z,3.22
2022-09-12T19:29:34.380Z,3.03
2022-09-12T19:32:01.454Z,2.70
2022-09-12T19:34:28.378Z,3.00
2022-09-12T19:36:55.496Z,3.03
2022-09-12T19:39:22.471Z,3.00
2022-09-12T19:41:49.340Z,3.00
2022-09-12T19:44:16.625Z,3.27
2022-09-12T19:46:43.762Z,3.30
2022-09-12T19:49:12.050Z,2.92
2022-09-12T19:51:39.009Z,3.38
2022-09-12T19:54:06.179Z,3.10
2022-09-12T19:56:32.995Z,2.90
2022-09-12T19:58:59.895Z,2.80
2022-09-12T20:01:28.741Z,3.13
2022-09-12T20:03:57.480Z,3.80
2022-09-12T20:06:25.913Z,3.28
2022-09-12T20:08:52.908Z,3.50
2022-09-12T20:11:21.450Z,3.03
2022-09-12T20:13:48.298Z,4.03
2022-09-12T20:16:21.372Z,3.05
2022-09-12T20:18:53.721Z,3.47
2022-09-12T20:21:23.180Z,3.13
2022-09-12T20:23:50.023Z,3.90
2022-09-12T20:26:16.964Z,3.20
2022-09-12T20:28:43.922Z,3.13
2022-09-12T20:31:13.843Z,3.20
2022-09-12T20:33:41.574Z,3.23
2022-09-12T20:36:11.230Z,3.30
2022-09-12T20:38:38.238Z,3.25
2022-09-12T20:41:06.906Z,3.67
2022-09-12T20:43:34.102Z,4.32
2022-09-12T20:46:05.954Z,3.90
2022-09-12T20:48:32.897Z,3.45
2022-09-12T20:51:00.233Z,3.53
2022-09-12T20:53:30.673Z,3.03
2022-09-12T20:56:01.601Z,3.03
2022-09-12T20:58:28.476Z,3.40
2022-09-12T21:00:55.376Z,2.95
2022-09-12T21:03:22.448Z,2.80
2022-09-12T21:05:49.289Z,3.15
2022-09-12T21:08:16.308Z,3.00
2022-09-12T21:10:44.440Z,3.30
2022-09-12T21:13:12.099Z,3.38
2022-09-12T21:15:39.994Z,3.13
2022-09-12T21:18:07.129Z,3.33
2022-09-12T21:20:34.394Z,3.55
2022-09-12T21:23:01.462Z,3.37
2022-09-12T21:25:29.290Z,3.40
2022-09-12T21:27:56.143Z,3.75
2022-09-12T21:30:23.221Z,3.55
2022-09-12T21:32:50.129Z,4.45
2022-09-12T21:35:17.131Z,3.30
2022-09-12T21:37:43.915Z,3.40
2022-09-12T21:40:11.041Z,3.95
2022-09-12T21:42:37.900Z,3.58
2022-09-12T21:45:05.029Z,3.30
2022-09-12T21:47:31.879Z,3.53
2022-09-12T21:49:58.787Z,4.30
2022-09-12T21:52:25.854Z,3.40
2022-09-12T21:54:52.698Z,3.30
2022-09-12T21:57:19.463Z,4.35
2022-09-12T21:59:46.227Z,3.33
2022-09-12T22:02:13.043Z,3.70
2022-09-12T22:04:39.890Z,4.75
2022-09-12T22:07:06.621Z,4.22
2022-09-12T22:09:34.108Z,3.30
2022-09-12T22:12:01.927Z,3.40
2022-09-12T22:14:29.150Z,3.53
2022-09-12T22:16:56.015Z,3.50
2022-09-12T22:19:22.820Z,3.35
2022-09-12T22:21:49.544Z,3.10
2022-09-12T22:24:16.400Z,3.13
2022-09-12T22:26:45.451Z,3.42
2022-09-12T22:29:13.013Z,3.10
2022-09-12T22:31:40.298Z,3.35
2022-09-12T22:34:07.806Z,3.20
2022-09-12T22:36:38.636Z,3.37
2022-09-12T22:39:06.240Z,3.38
2022-09-12T22:41:32.976Z,3.30
2022-09-12T22:43:59.708Z,3.00
2022-09-12T22:46:26.735Z,3.30
2022-09-12T22:48:53.559Z,3.33
2022-09-12T22:51:20.349Z,3.30
2022-09-12T22:53:47.315Z,4.13
2022-09-12T22:56:14.149Z,3.30
2022-09-12T22:58:40.883Z,4.60
2022-09-12T23:01:08.522Z,3.03
2022-09-12T23:03:35.871Z,3.20
2022-09-12T23:06:03.849Z,3.33
2022-09-12T23:08:30.977Z,3.85
2022-09-12T23:11:06.475Z,3.25
2022-09-12T23:13:33.445Z,3.47
2022-09-12T23:16:02.278Z,3.25
2022-09-12T23:18:29.678Z,4.10
2022-09-12T23:21:01.817Z,3.40
2022-09-12T23:23:29.156Z,3.30
2022-09-12T23:26:12.914Z,3.33
2022-09-12T23:28:41.696Z,3.45
2022-09-12T23:31:09.515Z,3.55
2022-09-12T23:33:36.929Z,3.53
2022-09-12T23:36:09.231Z,4.35
2022-09-12T23:38:36.210Z,3.73
2022-09-12T23:41:04.409Z,3.33
2022-09-12T23:43:31.616Z,3.15
2022-09-12T23:45:58.669Z,3.17
2022-09-12T23:48:25.721Z,4.05
2022-09-12T23:50:52.812Z,3.10
2022-09-12T23:53:20.148Z,3.35
2022-09-12T23:55:47.448Z,3.58
2022-09-12T23:58:14.990Z,3.63
